createdAt,value
2023-12-18T00:00:59.416Z,2.1
2023-12-18T00:01:59.315Z,2.1
2023-12-18T00:02:59.383Z,2.1
2023-12-18T00:03:59.384Z,2.1
2023-12-18T00:04:59.394Z,2
2023-12-18T00:05:59.351Z,2
2023-12-18T00:06:59.319Z,2
2023-12-18T00:07:59.330Z,2
2023-12-18T00:08:59.381Z,2
2023-12-18T00:09:59.357Z,2
2023-12-18T00:10:59.313Z,1.5
2023-12-18T00:12:06.640Z,1.4
2023-12-18T00:12:59.324Z,1.7
2023-12-18T00:13:59.328Z,1.9
2023-12-18T00:14:59.343Z,1.7
2023-12-18T00:15:59.314Z,1.9
2023-12-18T00:16:59.312Z,1.9
2023-12-18T00:17:59.423Z,1.9
2023-12-18T00:18:59.576Z,1.9
2023-12-18T00:19:59.338Z,1.9
2023-12-18T00:20:59.440Z,1.9
2023-12-18T00:21:59.325Z,1.9
2023-12-18T00:22:59.311Z,1.9
2023-12-18T00:23:59.369Z,1.9
2023-12-18T00:24:59.314Z,1.9
2023-12-18T00:25:59.332Z,1.9
2023-12-18T00:26:59.451Z,1.9
2023-12-18T00:27:59.369Z,1.9
2023-12-18T00:28:59.320Z,1.9
2023-12-18T00:29:59.431Z,1.9
2023-12-18T00:30:59.445Z,1.9
2023-12-18T00:31:59.342Z,1.9
2023-12-18T00:32:59.442Z,1.9
2023-12-18T00:33:59.513Z,1.9
2023-12-18T00:34:59.417Z,1.9
2023-12-18T00:35:59.409Z,1.8
2023-12-18T00:36:59.321Z,1.8
2023-12-18T00:37:59.335Z,1.8
2023-12-18T00:38:59.422Z,1.8
2023-12-18T00:39:59.316Z,1.8
2023-12-18T00:40:59.326Z,1.8
2023-12-18T00:41:59.413Z,1.8
2023-12-18T00:42:59.311Z,1.9
2023-12-18T00:43:59.611Z,1.9
2023-12-18T00:44:59.335Z,1.9
2023-12-18T00:45:59.326Z,1.9
2023-12-18T00:46:59.342Z,1.9
2023-12-18T00:47:59.489Z,1.9
2023-12-18T00:48:59.465Z,1.9
2023-12-18T00:49:59.386Z,1.9
2023-12-18T00:50:59.412Z,1.9
2023-12-18T00:51:59.318Z,1.9
2023-12-18T00:52:59.317Z,1.9
2023-12-18T00:53:59.761Z,1.9
2023-12-18T00:54:59.313Z,1.9
2023-12-18T00:55:59.370Z,1.9
2023-12-18T00:56:59.338Z,1.9
2023-12-18T00:57:59.368Z,1.9
2023-12-18T00:58:59.320Z,1.9
2023-12-18T00:59:59.346Z,1.9
2023-12-18T01:00:59.449Z,1.9
2023-12-18T01:01:59.331Z,1.9
2023-12-18T01:02:59.344Z,1.9
2023-12-18T01:03:59.433Z,1.9
2023-12-18T01:05:05.794Z,1.9
2023-12-18T01:05:59.322Z,1.9
2023-12-18T01:06:59.334Z,1.9
2023-12-18T01:07:59.321Z,1.9
2023-12-18T01:08:59.331Z,1.9
2023-12-18T01:09:59.351Z,1.9
2023-12-18T01:10:59.319Z,1.9
2023-12-18T01:11:59.315Z,1.9
2023-12-18T01:12:59.318Z,1.9
2023-12-18T01:13:59.329Z,1.9
2023-12-18T01:14:59.320Z,1.9
2023-12-18T01:15:59.318Z,1.9
2023-12-18T01:16:59.340Z,1.9
2023-12-18T01:17:59.509Z,1.9
2023-12-18T01:18:59.586Z,2
2023-12-18T01:19:59.316Z,2
2023-12-18T01:20:59.318Z,1.6
2023-12-18T01:21:59.334Z,1.9
2023-12-18T01:23:04.365Z,1.9
2023-12-18T01:23:59.320Z,1.9
2023-12-18T01:24:59.346Z,2
2023-12-18T01:25:59.324Z,2
2023-12-18T01:26:59.322Z,2
2023-12-18T01:27:59.324Z,2
2023-12-18T01:28:59.327Z,2
2023-12-18T01:29:59.333Z,2.1
2023-12-18T01:31:01.944Z,2.1
2023-12-18T01:31:59.331Z,2.1
2023-12-18T01:32:59.420Z,2.1
2023-12-18T01:33:59.388Z,2.1
2023-12-18T01:34:59.328Z,2.1
2023-12-18T01:35:59.318Z,2.1
2023-12-18T01:36:59.320Z,2.1
2023-12-18T01:37:59.315Z,2.1
2023-12-18T01:38:59.320Z,2.1
2023-12-18T01:39:59.334Z,2.1
2023-12-18T01:40:59.315Z,2.1
2023-12-18T01:41:59.315Z,2.1
2023-12-18T01:42:59.316Z,2.1
2023-12-18T01:43:59.345Z,2.1
2023-12-18T01:44:59.320Z,2.1
2023-12-18T01:45:59.329Z,2.1
2023-12-18T01:46:59.319Z,2.1
2023-12-18T01:47:59.399Z,2.1
2023-12-18T01:48:59.470Z,2.2
2023-12-18T01:49:59.326Z,2.2
2023-12-18T01:50:59.367Z,2.1
2023-12-18T01:51:59.345Z,2.2
2023-12-18T01:52:59.323Z,2.1
2023-12-18T01:53:59.333Z,2.2
2023-12-18T01:54:59.318Z,2.2
2023-12-18T01:55:59.320Z,2.2
2023-12-18T01:56:59.324Z,2.2
2023-12-18T01:57:59.360Z,2.2
2023-12-18T01:58:59.323Z,2.2
2023-12-18T01:59:59.342Z,2.2
2023-12-18T02:00:59.553Z,2.2
2023-12-18T02:01:59.322Z,2.2
2023-12-18T02:02:59.328Z,2.2
2023-12-18T02:03:59.452Z,2.2
2023-12-18T02:04:59.358Z,2.2
2023-12-18T02:05:59.320Z,2.2
2023-12-18T02:06:59.324Z,2.2
2023-12-18T02:07:59.319Z,2.2
2023-12-18T02:08:59.320Z,2.2
2023-12-18T02:09:59.331Z,2.2
2023-12-18T02:10:59.326Z,2.2
2023-12-18T02:11:59.347Z,2.2
2023-12-18T02:12:59.318Z,2.2
2023-12-18T02:13:59.324Z,2.2
2023-12-18T02:14:59.317Z,2.2
2023-12-18T02:15:59.326Z,2.1
2023-12-18T02:16:59.327Z,2.2
2023-12-18T02:17:59.345Z,2.2
2023-12-18T02:18:59.457Z,2.2
2023-12-18T02:19:59.326Z,2.2
2023-12-18T02:20:59.322Z,2.2
2023-12-18T02:21:59.381Z,2.2
2023-12-18T02:22:59.338Z,2.2
2023-12-18T02:23:59.367Z,2.2
2023-12-18T02:24:59.325Z,2.1
2023-12-18T02:25:59.327Z,2.1
2023-12-18T02:26:59.320Z,2.1
2023-12-18T02:27:59.336Z,2.1
2023-12-18T02:28:59.328Z,2.1
2023-12-18T02:29:59.328Z,2.1
2023-12-18T02:30:59.395Z,2.2
2023-12-18T02:31:59.332Z,2.2
2023-12-18T02:32:59.412Z,2.2
2023-12-18T02:33:59.472Z,2.2
2023-12-18T02:34:59.587Z,2.2
2023-12-18T02:35:59.325Z,2.2
2023-12-18T02:36:59.387Z,2.2
2023-12-18T02:37:59.334Z,2.2
2023-12-18T02:38:59.329Z,2.2
2023-12-18T02:39:59.338Z,2.2
2023-12-18T02:40:59.353Z,2.2
2023-12-18T02:41:59.404Z,2.2
2023-12-18T02:42:59.402Z,2.2
2023-12-18T02:43:59.333Z,2.2
2023-12-18T02:44:59.331Z,2.1
2023-12-18T02:45:59.325Z,2.1
2023-12-18T02:46:59.325Z,2.1
2023-12-18T02:47:59.388Z,2
2023-12-18T02:48:59.381Z,1.9
2023-12-18T02:50:06.590Z,1.9
2023-12-18T02:50:59.344Z,1.9
2023-12-18T02:51:59.374Z,1.9
2023-12-18T02:52:59.318Z,1.9
2023-12-18T02:53:59.318Z,1.9
2023-12-18T02:54:59.456Z,1.9
2023-12-18T02:55:59.328Z,1.9
2023-12-18T02:56:59.373Z,1.9
2023-12-18T02:57:59.324Z,1.9
2023-12-18T02:58:59.335Z,1.9
2023-12-18T03:00:00.547Z,2
2023-12-18T03:00:59.185Z,2
2023-12-18T03:01:59.334Z,1.9
2023-12-18T03:02:59.404Z,1.9
2023-12-18T03:03:59.369Z,1.8
2023-12-18T03:04:59.332Z,1.8
2023-12-18T03:05:59.321Z,1.9
2023-12-18T03:06:59.325Z,1.9
2023-12-18T03:07:59.321Z,1.9
2023-12-18T03:08:59.317Z,1.9
2023-12-18T03:09:59.345Z,1.9
2023-12-18T03:10:59.318Z,1.9
2023-12-18T03:11:59.323Z,1.9
2023-12-18T03:12:59.330Z,1.9
2023-12-18T03:13:59.323Z,1.9
2023-12-18T03:14:59.374Z,1.9
2023-12-18T03:15:59.320Z,1.9
2023-12-18T03:16:59.332Z,1.9
2023-12-18T03:17:59.409Z,1.9
2023-12-18T03:18:59.460Z,1.9
2023-12-18T03:19:59.359Z,1.9
2023-12-18T03:20:59.316Z,1.9
2023-12-18T03:21:59.322Z,1.9
2023-12-18T03:22:59.324Z,1.9
2023-12-18T03:23:59.328Z,2
2023-12-18T03:24:59.335Z,2
2023-12-18T03:25:59.319Z,2
2023-12-18T03:26:59.319Z,2
2023-12-18T03:27:59.332Z,2.1
2023-12-18T03:28:59.318Z,2.1
2023-12-18T03:29:59.341Z,2.1
2023-12-18T03:30:59.377Z,2.1
2023-12-18T03:31:59.315Z,2.1
2023-12-18T03:32:59.419Z,2.1
2023-12-18T03:33:59.456Z,2.1
2023-12-18T03:34:59.318Z,2.1
2023-12-18T03:35:59.322Z,2.1
2023-12-18T03:36:59.330Z,2.1
2023-12-18T03:37:59.320Z,2.1
2023-12-18T03:38:59.340Z,2.1
2023-12-18T03:39:59.413Z,2.1
2023-12-18T03:41:00.866Z,2.1
2023-12-18T03:41:59.355Z,2.1
2023-12-18T03:42:59.317Z,2.1
2023-12-18T03:43:59.313Z,2
2023-12-18T03:44:59.333Z,1.9
2023-12-18T03:45:59.349Z,1.9
2023-12-18T03:46:59.317Z,1.8
2023-12-18T03:47:59.396Z,1.8
2023-12-18T03:48:59.433Z,1.8
2023-12-18T03:49:59.409Z,1.8
2023-12-18T03:50:59.342Z,1.8
2023-12-18T03:51:59.349Z,1.7
2023-12-18T03:52:59.325Z,1.6
2023-12-18T03:53:59.326Z,1.6
2023-12-18T03:54:59.323Z,1.7
2023-12-18T03:55:59.325Z,1.7
2023-12-18T03:56:59.323Z,1.8
2023-12-18T03:57:59.316Z,1.8
2023-12-18T03:58:59.343Z,1.8
2023-12-18T03:59:59.324Z,1.8
2023-12-18T04:00:59.372Z,1.8
2023-12-18T04:01:59.317Z,1.8
2023-12-18T04:02:59.325Z,1.8
2023-12-18T04:03:59.384Z,1.8
2023-12-18T04:04:59.454Z,1.8
2023-12-18T04:05:59.356Z,1.8
2023-12-18T04:06:59.334Z,1.8
2023-12-18T04:07:59.333Z,1.8
2023-12-18T04:08:59.322Z,1.8
2023-12-18T04:09:59.340Z,1.8
2023-12-18T04:10:59.321Z,1.8
2023-12-18T04:11:59.324Z,1.8
2023-12-18T04:12:59.321Z,1.9
2023-12-18T04:13:59.319Z,1.9
2023-12-18T04:14:59.317Z,1.9
2023-12-18T04:16:00.740Z,1.9
2023-12-18T04:16:59.325Z,1.9
2023-12-18T04:17:59.410Z,1.9
2023-12-18T04:18:59.404Z,1.9
2023-12-18T04:19:59.338Z,1.9
2023-12-18T04:20:59.326Z,1.9
2023-12-18T04:21:59.332Z,1.9
2023-12-18T04:22:59.317Z,1.9
2023-12-18T04:23:59.318Z,1.9
2023-12-18T04:24:59.326Z,1.9
2023-12-18T04:25:59.315Z,1.9
2023-12-18T04:26:59.322Z,1.9
2023-12-18T04:27:59.344Z,1.9
2023-12-18T04:28:59.319Z,1.8
2023-12-18T04:29:59.326Z,1.8
2023-12-18T04:30:59.430Z,1.8
2023-12-18T04:31:59.317Z,1.8
2023-12-18T04:32:59.421Z,1.8
2023-12-18T04:33:59.400Z,1.8
2023-12-18T04:34:59.310Z,1.8
2023-12-18T04:35:59.317Z,1.8
2023-12-18T04:37:02.429Z,1.8
2023-12-18T04:37:59.371Z,1.9
2023-12-18T04:38:59.315Z,1.9
2023-12-18T04:39:59.317Z,1.9
2023-12-18T04:41:00.144Z,1.9
2023-12-18T04:41:59.316Z,1.9
2023-12-18T04:42:59.316Z,1.9
2023-12-18T04:43:59.317Z,2
2023-12-18T04:44:59.314Z,2
2023-12-18T04:45:59.316Z,2
2023-12-18T04:46:59.319Z,2.1
2023-12-18T04:47:59.445Z,2
2023-12-18T04:48:59.422Z,2
2023-12-18T04:49:59.357Z,2
2023-12-18T04:50:59.322Z,2
2023-12-18T04:51:59.453Z,2
2023-12-18T04:52:59.329Z,2
2023-12-18T04:53:59.351Z,2
2023-12-18T04:54:59.320Z,2
2023-12-18T04:55:59.616Z,2
2023-12-18T04:56:59.315Z,1.9
2023-12-18T04:57:59.320Z,1.9
2023-12-18T04:58:59.314Z,1.9
2023-12-18T04:59:59.325Z,1.8
2023-12-18T05:00:59.426Z,1.8
2023-12-18T05:01:59.315Z,1.8
2023-12-18T05:02:59.318Z,1.8
2023-12-18T05:03:59.388Z,1.8
2023-12-18T05:04:59.400Z,1.8
2023-12-18T05:05:59.310Z,1.8
2023-12-18T05:06:59.315Z,1.8
2023-12-18T05:07:59.330Z,1.8
2023-12-18T05:08:59.320Z,1.8
2023-12-18T05:09:59.348Z,1.8
2023-12-18T05:10:59.316Z,1.8
2023-12-18T05:11:59.316Z,1.8
2023-12-18T05:12:59.387Z,1.7
2023-12-18T05:13:59.333Z,1.7
2023-12-18T05:15:00.813Z,1.6
2023-12-18T05:15:59.363Z,1.5
2023-12-18T05:17:02.077Z,1.5
2023-12-18T05:17:59.414Z,1.5
2023-12-18T05:18:59.409Z,1.5
2023-12-18T05:19:59.333Z,1.5
2023-12-18T05:20:59.322Z,1.6
2023-12-18T05:21:59.330Z,1.6
2023-12-18T05:22:59.320Z,1.6
2023-12-18T05:23:59.324Z,1.6
2023-12-18T05:24:59.333Z,1.6
2023-12-18T05:25:59.328Z,1.7
2023-12-18T05:26:59.327Z,1.7
2023-12-18T05:27:59.320Z,1.7
2023-12-18T05:28:59.323Z,1.8
2023-12-18T05:29:59.326Z,1.8
2023-12-18T05:30:59.358Z,1.8
2023-12-18T05:31:59.325Z,1.8
2023-12-18T05:32:59.369Z,1.8
2023-12-18T05:33:59.470Z,1.8
2023-12-18T05:34:59.381Z,1.8
2023-12-18T05:35:59.322Z,1.7
2023-12-18T05:36:59.385Z,1.6
2023-12-18T05:37:59.317Z,1.6
2023-12-18T05:38:59.315Z,1.6
2023-12-18T05:39:59.319Z,1.6
2023-12-18T05:40:59.316Z,1.6
2023-12-18T05:41:59.322Z,1.6
2023-12-18T05:42:59.505Z,1.6
2023-12-18T05:43:59.316Z,1.7
2023-12-18T05:44:59.322Z,1.7
2023-12-18T05:45:59.329Z,1.8
2023-12-18T05:46:59.324Z,1.8
2023-12-18T05:47:59.394Z,1.8
2023-12-18T05:48:59.405Z,1.8
2023-12-18T05:49:59.400Z,1.8
2023-12-18T05:50:59.314Z,1.9
2023-12-18T05:51:59.375Z,1.9
2023-12-18T05:52:59.348Z,1.9
2023-12-18T05:53:59.317Z,1.9
2023-12-18T05:54:59.364Z,1.9
2023-12-18T05:55:59.336Z,1.9
2023-12-18T05:56:59.315Z,1.9
2023-12-18T05:57:59.317Z,1.9
2023-12-18T05:58:59.318Z,2
2023-12-18T05:59:59.320Z,2
2023-12-18T06:01:01.128Z,2
2023-12-18T06:01:59.317Z,1.9
2023-12-18T06:02:59.313Z,2
2023-12-18T06:03:59.407Z,1.9
2023-12-18T06:04:59.320Z,2
2023-12-18T06:05:59.390Z,2
2023-12-18T06:06:59.350Z,2
2023-12-18T06:07:59.312Z,2
2023-12-18T06:08:59.327Z,2
2023-12-18T06:09:59.338Z,2
2023-12-18T06:10:59.317Z,2
2023-12-18T06:11:59.325Z,2
2023-12-18T06:12:59.352Z,2
2023-12-18T06:13:59.324Z,2.1
2023-12-18T06:14:59.311Z,2.1
2023-12-18T06:15:59.315Z,2.1
2023-12-18T06:16:59.350Z,2
2023-12-18T06:17:59.445Z,2
2023-12-18T06:18:59.395Z,2
2023-12-18T06:19:59.364Z,2.1
2023-12-18T06:20:59.312Z,2.1
2023-12-18T06:21:59.315Z,2.1
2023-12-18T06:22:59.313Z,2
2023-12-18T06:23:59.313Z,1.9
2023-12-18T06:24:59.320Z,1.9
2023-12-18T06:26:01.484Z,1.9
2023-12-18T06:26:59.314Z,1.9
2023-12-18T06:27:59.331Z,1.9
2023-12-18T06:28:59.337Z,1.9
2023-12-18T06:29:59.318Z,1.8
2023-12-18T06:30:59.376Z,1.8
2023-12-18T06:31:59.383Z,1.8
2023-12-18T06:32:59.456Z,1.8
2023-12-18T06:33:59.495Z,1.8
2023-12-18T06:34:59.364Z,1.8
2023-12-18T06:35:59.310Z,1.7
2023-12-18T06:36:59.341Z,1.7
2023-12-18T06:37:59.313Z,1.6
2023-12-18T06:38:59.317Z,1.6
2023-12-18T06:39:59.314Z,1.7
2023-12-18T06:40:59.308Z,1.7
2023-12-18T06:41:59.317Z,1.8
2023-12-18T06:42:59.373Z,1.8
2023-12-18T06:43:59.312Z,1.9
2023-12-18T06:44:59.313Z,1.9
2023-12-18T06:45:59.311Z,1.9
2023-12-18T06:46:59.321Z,1.9
2023-12-18T06:47:59.378Z,1.9
2023-12-18T06:48:59.413Z,1.9
2023-12-18T06:49:59.332Z,1.9
2023-12-18T06:50:59.319Z,1.9
2023-12-18T06:51:59.348Z,1.8
2023-12-18T06:52:59.318Z,1.8
2023-12-18T06:53:59.349Z,1.8
2023-12-18T06:54:59.311Z,1.9
2023-12-18T06:55:59.347Z,1.9
2023-12-18T06:56:59.308Z,1.9
2023-12-18T06:57:59.350Z,1.9
2023-12-18T06:58:59.364Z,1.9
2023-12-18T06:59:59.311Z,1.9
2023-12-18T07:00:59.543Z,1.9
2023-12-18T07:01:59.384Z,1.9
2023-12-18T07:02:59.399Z,1.9
2023-12-18T07:03:59.413Z,1.9
2023-12-18T07:04:59.379Z,1.9
2023-12-18T07:05:59.334Z,1.9
2023-12-18T07:06:59.360Z,1.9
2023-12-18T07:07:59.331Z,1.9
2023-12-18T07:08:59.412Z,1.9
2023-12-18T07:09:59.442Z,1.9
2023-12-18T07:10:59.318Z,1.9
2023-12-18T07:11:59.331Z,1.9
2023-12-18T07:12:59.353Z,1.9
2023-12-18T07:13:59.336Z,1.9
2023-12-18T07:14:59.326Z,1.8
2023-12-18T07:15:59.332Z,1.8
2023-12-18T07:16:59.322Z,1.8
2023-12-18T07:17:59.412Z,1.8
2023-12-18T07:18:59.440Z,1.8
2023-12-18T07:20:09.661Z,1.8
2023-12-18T07:20:59.322Z,1.7
2023-12-18T07:21:59.344Z,1.7
2023-12-18T07:22:59.318Z,1.7
2023-12-18T07:23:59.338Z,1.7
2023-12-18T07:24:59.336Z,1.7
2023-12-18T07:25:59.330Z,1.7
2023-12-18T07:26:59.365Z,1.7
2023-12-18T07:27:59.328Z,1.8
2023-12-18T07:28:59.351Z,1.8
2023-12-18T07:29:59.326Z,1.8
2023-12-18T07:30:59.395Z,1.7
2023-12-18T07:31:59.353Z,1.7
2023-12-18T07:32:59.384Z,1.8
2023-12-18T07:33:59.491Z,1.8
2023-12-18T07:34:59.410Z,1.8
2023-12-18T07:35:59.325Z,1.8
2023-12-18T07:36:59.321Z,1.8
2023-12-18T07:37:59.352Z,1.9
2023-12-18T07:38:59.318Z,1.9
2023-12-18T07:39:59.329Z,1.9
2023-12-18T07:40:59.332Z,1.9
2023-12-18T07:41:59.322Z,1.9
2023-12-18T07:42:59.404Z,2
2023-12-18T07:43:59.320Z,2
2023-12-18T07:44:59.332Z,2.1
2023-12-18T07:45:59.387Z,2.1
2023-12-18T07:46:59.321Z,2.1
2023-12-18T07:47:59.429Z,2.1
2023-12-18T07:48:59.491Z,2
2023-12-18T07:49:59.438Z,2
2023-12-18T07:50:59.354Z,1.9
2023-12-18T07:51:59.329Z,1.9
2023-12-18T07:52:59.320Z,1.9
2023-12-18T07:53:59.341Z,1.9
2023-12-18T07:54:59.325Z,1.9
2023-12-18T07:55:59.335Z,2
2023-12-18T07:56:59.363Z,2
2023-12-18T07:57:59.342Z,2.1
2023-12-18T07:58:59.351Z,2.1
2023-12-18T07:59:59.328Z,2.1
2023-12-18T08:00:59.444Z,2.1
2023-12-18T08:01:59.347Z,2
2023-12-18T08:02:59.336Z,2
2023-12-18T08:03:59.461Z,2
2023-12-18T08:04:59.393Z,2
2023-12-18T08:05:59.317Z,2.1
2023-12-18T08:06:59.332Z,2.1
2023-12-18T08:07:59.324Z,2.1
2023-12-18T08:08:59.318Z,2.1
2023-12-18T08:09:59.313Z,2.1
2023-12-18T08:10:59.317Z,2.1
2023-12-18T08:11:59.316Z,2.2
2023-12-18T08:12:59.382Z,2.1
2023-12-18T08:13:59.323Z,2.1
2023-12-18T08:14:59.335Z,2.1
2023-12-18T08:15:59.325Z,2.2
2023-12-18T08:16:59.324Z,2.2
2023-12-18T08:17:59.415Z,2.2
2023-12-18T08:18:59.429Z,2.2
2023-12-18T08:19:59.322Z,2.2
2023-12-18T08:20:59.333Z,2.2
2023-12-18T08:21:59.321Z,2.2
2023-12-18T08:22:59.314Z,2.2
2023-12-18T08:23:59.328Z,2.2
2023-12-18T08:24:59.334Z,2.2
2023-12-18T08:25:59.316Z,2.2
2023-12-18T08:26:59.323Z,2.2
2023-12-18T08:27:59.371Z,2.3
2023-12-18T08:28:59.319Z,2.4
2023-12-18T08:29:59.322Z,2.4
2023-12-18T08:30:59.440Z,2.4
2023-12-18T08:31:59.323Z,2.4
2023-12-18T08:32:59.337Z,2.4
2023-12-18T08:33:59.373Z,2.4
2023-12-18T08:34:59.362Z,2.3
2023-12-18T08:35:59.315Z,2.2
2023-12-18T08:36:59.334Z,2.2
2023-12-18T08:37:59.317Z,2.2
2023-12-18T08:38:59.321Z,2.1
2023-12-18T08:39:59.353Z,2.1
2023-12-18T08:40:59.322Z,2.1
2023-12-18T08:41:59.349Z,2.1
2023-12-18T08:42:59.377Z,2.1
2023-12-18T08:44:05.448Z,2.1
2023-12-18T08:44:59.325Z,2.1
2023-12-18T08:45:59.330Z,2.1
2023-12-18T08:46:59.354Z,2.1
2023-12-18T08:47:59.404Z,2.1
2023-12-18T08:48:59.421Z,2.1
2023-12-18T08:49:59.323Z,2.1
2023-12-18T08:50:59.338Z,2.2
2023-12-18T08:51:59.350Z,2.2
2023-12-18T08:52:59.328Z,2.3
2023-12-18T08:53:59.321Z,2.4
2023-12-18T08:54:59.344Z,2.4
2023-12-18T08:55:59.376Z,2.4
2023-12-18T08:56:59.321Z,2.4
2023-12-18T08:57:59.320Z,2.5
2023-12-18T08:58:59.368Z,2.5
2023-12-18T08:59:59.332Z,2.5
2023-12-18T09:00:59.484Z,2.5
2023-12-18T09:01:59.317Z,2.5
2023-12-18T09:02:59.399Z,2.6
2023-12-18T09:03:59.397Z,2.6
2023-12-18T09:04:59.369Z,2.6
2023-12-18T09:05:59.370Z,2.7
2023-12-18T09:06:59.370Z,2.7
2023-12-18T09:07:59.319Z,2.7
2023-12-18T09:08:59.323Z,2.8
2023-12-18T09:09:59.329Z,2.8
2023-12-18T09:10:59.332Z,2.8
2023-12-18T09:12:00.344Z,2.9
2023-12-18T09:12:59.386Z,2.9
2023-12-18T09:13:59.321Z,2.9
2023-12-18T09:14:59.316Z,2.9
2023-12-18T09:15:59.347Z,2.9
2023-12-18T09:16:59.322Z,2.9
2023-12-18T09:17:59.324Z,3
2023-12-18T09:18:59.606Z,3
2023-12-18T09:19:59.358Z,3.1
2023-12-18T09:20:59.346Z,3.1
2023-12-18T09:21:59.329Z,3.1
2023-12-18T09:22:59.320Z,3.1
2023-12-18T09:23:59.333Z,3.1
2023-12-18T09:24:59.321Z,3.1
2023-12-18T09:25:59.327Z,3.1
2023-12-18T09:26:59.327Z,3.1
2023-12-18T09:27:59.334Z,3.2
2023-12-18T09:28:59.363Z,3.2
2023-12-18T09:29:59.325Z,3.2
2023-12-18T09:30:59.403Z,3.2
2023-12-18T09:31:59.445Z,3.3
2023-12-18T09:32:59.527Z,3.4
2023-12-18T09:33:59.486Z,2.9
2023-12-18T09:34:59.425Z,2.7
2023-12-18T09:36:00.228Z,2.8
2023-12-18T09:36:59.322Z,3.1
2023-12-18T09:37:59.323Z,3.2
2023-12-18T09:38:59.326Z,3.2
2023-12-18T09:39:59.322Z,3.3
2023-12-18T09:40:59.323Z,3.4
2023-12-18T09:41:59.326Z,3.4
2023-12-18T09:42:59.365Z,3.5
2023-12-18T09:43:59.319Z,3.6
2023-12-18T09:44:59.318Z,3.6
2023-12-18T09:45:59.412Z,3.6
2023-12-18T09:46:59.338Z,3.4
2023-12-18T09:47:59.425Z,3.3
2023-12-18T09:48:59.413Z,3.2
2023-12-18T09:49:59.347Z,3.2
2023-12-18T09:50:59.350Z,3.2
2023-12-18T09:51:59.319Z,3.2
2023-12-18T09:52:59.315Z,3.2
2023-12-18T09:53:59.336Z,3.2
2023-12-18T09:54:59.319Z,3.2
2023-12-18T09:55:59.322Z,2.9
2023-12-18T09:56:59.333Z,3.2
2023-12-18T09:57:59.344Z,3.4
2023-12-18T09:58:59.333Z,3.4
2023-12-18T09:59:59.350Z,3.4
2023-12-18T10:00:59.448Z,3.5
2023-12-18T10:01:59.318Z,3.6
2023-12-18T10:02:59.395Z,3.6
2023-12-18T10:03:59.434Z,3.6
2023-12-18T10:04:59.399Z,3.7
2023-12-18T10:05:59.369Z,3.8
2023-12-18T10:06:59.378Z,3.9
2023-12-18T10:07:59.332Z,3.9
2023-12-18T10:08:59.389Z,4
2023-12-18T10:09:59.434Z,4.1
2023-12-18T10:10:59.338Z,4.1
2023-12-18T10:11:59.320Z,4.1
2023-12-18T10:12:59.378Z,4.2
2023-12-18T10:13:59.332Z,4.2
2023-12-18T10:14:59.317Z,4.3
2023-12-18T10:15:59.369Z,4.4
2023-12-18T10:16:59.322Z,4.4
2023-12-18T10:17:59.376Z,4.4
2023-12-18T10:18:59.364Z,4.5
2023-12-18T10:19:59.497Z,4.5
2023-12-18T10:20:59.321Z,4.6
2023-12-18T10:21:59.330Z,4.6
2023-12-18T10:22:59.319Z,4.7
2023-12-18T10:23:59.319Z,4.7
2023-12-18T10:24:59.349Z,4.8
2023-12-18T10:25:59.317Z,4.8
2023-12-18T10:26:59.317Z,4.8
2023-12-18T10:27:59.339Z,4.8
2023-12-18T10:28:59.333Z,4.8
2023-12-18T10:29:59.327Z,4.8
2023-12-18T10:30:59.466Z,4.8
2023-12-18T10:31:59.362Z,4.8
2023-12-18T10:32:59.392Z,4.8
2023-12-18T10:33:59.472Z,4.8
2023-12-18T10:34:59.349Z,4.8
2023-12-18T10:35:59.342Z,4.8
2023-12-18T10:36:59.371Z,4.7
2023-12-18T10:37:59.371Z,4.8
2023-12-18T10:38:59.355Z,4.8
2023-12-18T10:39:59.340Z,4.8
2023-12-18T10:40:59.346Z,4.7
2023-12-18T10:41:59.344Z,4.7
2023-12-18T10:42:59.370Z,4.6
2023-12-18T10:43:59.325Z,4.6
2023-12-18T10:44:59.402Z,4.6
2023-12-18T10:45:59.367Z,4.6
2023-12-18T10:46:59.354Z,4.6
2023-12-18T10:47:59.419Z,4.6
2023-12-18T10:52:59.761Z,4.6
2023-12-18T10:53:59.427Z,4.6
2023-12-18T10:54:59.424Z,4.6
2023-12-18T10:55:59.441Z,4.6
2023-12-18T10:56:59.423Z,4.6
2023-12-18T10:57:59.491Z,4.5
2023-12-18T10:58:59.423Z,4.4
2023-12-18T10:59:59.449Z,4.4
2023-12-18T11:00:59.520Z,4.4
2023-12-18T11:01:59.422Z,4.4
2023-12-18T11:02:59.454Z,4.4
2023-12-18T11:03:59.603Z,4.5
2023-12-18T11:04:59.450Z,4.4
2023-12-18T11:05:59.490Z,4.5
2023-12-18T11:06:59.427Z,4.6
2023-12-18T11:07:59.432Z,4.6
2023-12-18T11:08:59.433Z,4.5
2023-12-18T11:09:59.475Z,4.5
2023-12-18T11:10:59.459Z,4.5
2023-12-18T11:11:59.427Z,4.4
2023-12-18T11:12:59.443Z,4.4
2023-12-18T11:13:59.418Z,4.3
2023-12-18T11:14:59.418Z,4.3
2023-12-18T11:15:59.461Z,4.3
2023-12-18T11:16:59.493Z,4.3
2023-12-18T11:17:59.496Z,4.4
2023-12-18T11:19:08.515Z,4.4
2023-12-18T11:19:59.526Z,4.4
2023-12-18T11:20:59.473Z,4.5
2023-12-18T11:21:59.431Z,4.5
2023-12-18T11:22:59.449Z,4.6
2023-12-18T11:24:04.768Z,4.6
2023-12-18T11:24:59.419Z,4.4
2023-12-18T11:25:59.417Z,4.4
2023-12-18T11:26:59.485Z,4.3
2023-12-18T11:27:59.474Z,4.3
2023-12-18T11:28:59.433Z,4.3
2023-12-18T11:29:59.521Z,4.4
2023-12-18T11:30:59.512Z,4.4
2023-12-18T11:31:59.423Z,4.4
2023-12-18T11:32:59.450Z,4.4
2023-12-18T11:33:59.731Z,4.5
2023-12-18T11:34:59.576Z,4.4
2023-12-18T11:35:59.421Z,4.4
2023-12-18T11:36:59.423Z,4.4
2023-12-18T11:37:59.425Z,4.3
2023-12-18T11:38:59.447Z,4.4
2023-12-18T11:39:59.467Z,4.4
2023-12-18T11:40:59.426Z,4.4
2023-12-18T11:41:59.446Z,4.4
2023-12-18T11:42:59.491Z,4.4
2023-12-18T11:43:59.484Z,4.4
2023-12-18T11:44:59.441Z,4.4
2023-12-18T11:46:07.232Z,4.4
2023-12-18T11:46:59.425Z,4.5
2023-12-18T11:47:59.558Z,4.6
2023-12-18T11:48:59.519Z,4.6
2023-12-18T11:49:59.576Z,4.7
2023-12-18T11:50:59.461Z,4.8
2023-12-18T11:51:59.497Z,4.9
2023-12-18T11:52:59.441Z,5
2023-12-18T11:53:59.432Z,5
2023-12-18T11:54:59.468Z,5
2023-12-18T11:56:07.711Z,5.1
2023-12-18T11:56:59.433Z,5.1
2023-12-18T11:57:59.426Z,5.1
2023-12-18T11:58:59.427Z,5.2
2023-12-18T11:59:59.472Z,5.2
2023-12-18T12:00:59.587Z,5.2
2023-12-18T12:01:59.433Z,5.3
2023-12-18T12:03:00.878Z,5.3
2023-12-18T12:03:59.544Z,5.3
2023-12-18T12:04:59.438Z,5.4
2023-12-18T12:05:59.500Z,5.4
2023-12-18T12:06:59.490Z,5.4
2023-12-18T12:07:59.436Z,5.4
2023-12-18T12:08:59.429Z,5.3
2023-12-18T12:09:59.463Z,5.4
2023-12-18T12:10:59.432Z,5.4
2023-12-18T12:11:59.422Z,5.4
2023-12-18T12:12:59.525Z,5.6
2023-12-18T12:13:59.442Z,5.6
2023-12-18T12:14:59.429Z,5.7
2023-12-18T12:15:59.521Z,5.6
2023-12-18T12:16:59.427Z,5.5
2023-12-18T12:18:04.813Z,5.5
2023-12-18T12:18:59.598Z,5.4
2023-12-18T12:19:59.509Z,5.5
2023-12-18T12:20:59.475Z,5.5
2023-12-18T12:21:59.479Z,5.4
2023-12-18T12:22:59.437Z,5.5
2023-12-18T12:23:59.434Z,5.5
2023-12-18T12:24:59.524Z,5.5
2023-12-18T12:25:59.433Z,5.5
2023-12-18T12:26:59.427Z,5.5
2023-12-18T12:27:59.444Z,5.5
2023-12-18T12:28:59.441Z,5.6
2023-12-18T12:29:59.454Z,5.5
2023-12-18T12:30:59.545Z,5.4
2023-12-18T12:32:06.758Z,5.4
2023-12-18T12:32:59.561Z,5.4
2023-12-18T12:33:59.493Z,5.3
2023-12-18T12:34:59.496Z,5.3
2023-12-18T12:35:59.433Z,5.3
2023-12-18T12:36:59.449Z,5.2
2023-12-18T12:37:59.432Z,5.2
2023-12-18T12:38:59.427Z,5.2
2023-12-18T12:39:59.535Z,5.1
2023-12-18T12:40:59.434Z,5.2
2023-12-18T12:41:59.431Z,5.2
2023-12-18T12:42:59.446Z,5.2
2023-12-18T12:43:59.421Z,5.2
2023-12-18T12:44:59.426Z,5.2
2023-12-18T12:45:59.438Z,5.2
2023-12-18T12:46:59.420Z,5.2
2023-12-18T12:47:59.486Z,5.2
2023-12-18T12:48:59.505Z,5.3
2023-12-18T12:49:59.599Z,5.3
2023-12-18T12:50:59.426Z,5.3
2023-12-18T12:51:59.426Z,5.3
2023-12-18T12:53:06.573Z,5.2
2023-12-18T12:53:59.755Z,5.3
2023-12-18T12:54:59.465Z,5.3
2023-12-18T12:55:59.441Z,5.3
2023-12-18T12:56:59.437Z,5.3
2023-12-18T12:57:59.460Z,5.2
2023-12-18T12:58:59.427Z,5.2
2023-12-18T12:59:59.444Z,5.1
2023-12-18T13:00:59.543Z,5.1
2023-12-18T13:01:59.425Z,5.1
2023-12-18T13:02:59.464Z,5.1
2023-12-18T13:04:09.810Z,5.1
2023-12-18T13:04:59.513Z,5.1
2023-12-18T13:05:59.445Z,5.2
2023-12-18T13:07:00.598Z,5.2
2023-12-18T13:07:59.643Z,5.2
2023-12-18T13:08:59.428Z,5.2
2023-12-18T13:09:59.529Z,5.3
2023-12-18T13:11:01.662Z,5.3
2023-12-18T13:11:59.425Z,5.4
2023-12-18T13:12:59.434Z,5.3
2023-12-18T13:14:08.498Z,5.3
2023-12-18T13:14:59.433Z,5.3
2023-12-18T13:15:59.426Z,5.4
2023-12-18T13:16:59.423Z,5.4
2023-12-18T13:17:59.453Z,5.3
2023-12-18T13:18:59.494Z,5.3
2023-12-18T13:20:09.043Z,5.3
2023-12-18T13:20:59.421Z,5.2
2023-12-18T13:21:59.421Z,5.2
2023-12-18T13:22:59.419Z,5.3
2023-12-18T13:23:59.424Z,5.3
2023-12-18T13:24:59.446Z,5.3
2023-12-18T13:25:59.434Z,5.3
2023-12-18T13:26:59.429Z,5.2
2023-12-18T13:27:59.460Z,5.3
2023-12-18T13:28:59.420Z,5.3
2023-12-18T13:29:59.446Z,5.2
2023-12-18T13:30:59.539Z,5.3
2023-12-18T13:31:59.421Z,5.3
2023-12-18T13:32:59.483Z,5.3
2023-12-18T13:33:59.514Z,5.2
2023-12-18T13:34:59.449Z,5.1
2023-12-18T13:35:59.424Z,5
2023-12-18T13:37:09.001Z,4.9
2023-12-18T13:37:59.439Z,4.8
2023-12-18T13:38:59.424Z,4.8
2023-12-18T13:39:59.501Z,4.8
2023-12-18T13:40:59.442Z,4.8
2023-12-18T13:41:59.436Z,4.8
2023-12-18T13:42:59.485Z,4.9
2023-12-18T13:43:59.429Z,4.9
2023-12-18T13:44:59.440Z,4.9
2023-12-18T13:45:59.460Z,4.9
2023-12-18T13:46:59.419Z,4.9
2023-12-18T13:47:59.836Z,5
2023-12-18T13:48:59.547Z,5
2023-12-18T13:49:59.556Z,5.1
2023-12-18T13:50:59.420Z,5.1
2023-12-18T13:51:59.427Z,5.1
2023-12-18T13:52:59.446Z,5.1
2023-12-18T13:53:59.422Z,5.1
2023-12-18T13:54:59.488Z,5.1